createdAt,value
2024-05-09T00:00:10.501Z,10.63
2024-05-09T00:03:07.520Z,10.61
2024-05-09T00:06:07.025Z,10.53
2024-05-09T00:09:06.914Z,10.51
2024-05-09T00:12:07.026Z,10.57
2024-05-09T00:15:06.850Z,10.48
2024-05-09T00:18:07.893Z,10.42
2024-05-09T00:21:06.836Z,10.38
2024-05-09T00:24:06.744Z,10.37
2024-05-09T00:27:06.916Z,10.28
2024-05-09T00:30:07.269Z,10.23
2024-05-09T00:33:08.201Z,10.19
2024-05-09T00:36:06.625Z,10.17
2024-05-09T00:39:06.623Z,10.25
2024-05-09T00:42:06.575Z,10.20
2024-05-09T00:45:06.552Z,10.19
2024-05-09T00:48:07.791Z,10.16
2024-05-09T00:51:06.621Z,10.15
2024-05-09T00:54:06.465Z,10.10
2024-05-09T00:57:06.485Z,10.04
2024-05-09T01:00:12.101Z,10.01
2024-05-09T01:03:06.674Z,10.02
2024-05-09T01:06:06.426Z,9.98
2024-05-09T01:09:12.324Z,9.97
2024-05-09T01:12:06.365Z,9.97
2024-05-09T01:15:06.234Z,9.91
2024-05-09T01:18:08.175Z,9.89
2024-05-09T01:21:06.226Z,9.83
2024-05-09T01:24:06.177Z,9.79
2024-05-09T01:27:06.156Z,9.74
2024-05-09T01:30:09.531Z,9.76
2024-05-09T01:33:08.068Z,9.89
2024-05-09T01:36:06.034Z,9.89
2024-05-09T01:39:06.029Z,9.86
2024-05-09T01:42:05.985Z,9.87
2024-05-09T01:45:05.957Z,9.97
2024-05-09T01:48:06.169Z,9.97
2024-05-09T01:51:05.991Z,9.94
2024-05-09T01:54:05.870Z,9.91
2024-05-09T01:57:05.868Z,9.87
2024-05-09T02:00:07.719Z,9.82
2024-05-09T02:03:05.992Z,9.72
2024-05-09T02:06:05.823Z,9.66
2024-05-09T02:09:05.719Z,9.58
2024-05-09T02:12:05.914Z,9.51
2024-05-09T02:15:05.662Z,9.46
2024-05-09T02:18:05.839Z,9.29
2024-05-09T02:21:05.636Z,9.23
2024-05-09T02:24:05.598Z,9.14
2024-05-09T02:27:05.559Z,9.10
2024-05-09T02:30:12.254Z,9.06
2024-05-09T02:33:05.736Z,9.03
2024-05-09T02:36:05.470Z,8.95
2024-05-09T02:39:05.430Z,8.87
2024-05-09T02:42:05.330Z,8.84
2024-05-09T02:45:05.324Z,8.85
2024-05-09T02:48:05.505Z,8.79
2024-05-09T02:51:05.395Z,8.87
2024-05-09T02:54:05.243Z,8.81
2024-05-09T02:57:05.190Z,8.66
2024-05-09T03:00:07.664Z,8.60
2024-05-09T03:03:05.286Z,8.48
2024-05-09T03:06:05.117Z,8.42
2024-05-09T03:09:05.090Z,8.33
2024-05-09T03:12:05.131Z,8.44
2024-05-09T03:15:05.022Z,8.44
2024-05-09T03:18:05.312Z,8.38
2024-05-09T03:21:05.074Z,8.41
2024-05-09T03:24:04.941Z,8.30
2024-05-09T03:27:04.902Z,8.26
2024-05-09T03:30:07.337Z,8.18
2024-05-09T03:33:05.049Z,8.18
2024-05-09T03:36:06.812Z,8.16
2024-05-09T03:39:04.795Z,8.23
2024-05-09T03:42:04.750Z,8.24
2024-05-09T03:45:04.739Z,8.26
2024-05-09T03:48:04.818Z,8.34
2024-05-09T03:51:04.833Z,8.41
2024-05-09T03:54:04.737Z,8.42
2024-05-09T03:57:04.599Z,8.45
2024-05-09T04:00:07.417Z,8.45
2024-05-09T04:03:05.503Z,8.46
2024-05-09T04:06:04.552Z,8.55
2024-05-09T04:09:04.494Z,8.55
2024-05-09T04:12:04.673Z,8.66
2024-05-09T04:15:04.495Z,8.73
2024-05-09T04:18:04.538Z,8.78
2024-05-09T04:21:04.572Z,8.85
2024-05-09T04:24:04.357Z,8.94
2024-05-09T04:27:04.311Z,9.00
2024-05-09T04:30:06.161Z,9.08
2024-05-09T04:33:04.429Z,9.18
2024-05-09T04:36:04.235Z,9.28
2024-05-09T04:39:04.202Z,9.29
2024-05-09T04:42:04.156Z,9.34
2024-05-09T04:45:04.143Z,9.50
2024-05-09T04:48:04.373Z,9.64
2024-05-09T04:51:04.250Z,9.82
2024-05-09T04:54:04.510Z,9.91
2024-05-09T04:57:04.010Z,9.98
2024-05-09T05:00:07.245Z,10.07
2024-05-09T05:03:04.095Z,10.16
2024-05-09T05:06:04.083Z,10.31
2024-05-09T05:09:03.889Z,10.35
2024-05-09T05:12:04.005Z,10.46
2024-05-09T05:15:03.873Z,10.60
2024-05-09T05:18:03.976Z,10.72
2024-05-09T05:21:03.837Z,10.79
2024-05-09T05:24:03.750Z,10.89
2024-05-09T05:27:03.724Z,10.97
2024-05-09T05:30:07.339Z,11.10
2024-05-09T05:33:03.716Z,11.17
2024-05-09T05:36:03.635Z,11.23
2024-05-09T05:39:03.603Z,11.32
2024-05-09T05:42:03.556Z,11.43
2024-05-09T05:45:05.159Z,11.44
2024-05-09T05:48:03.774Z,11.52
2024-05-09T05:51:04.622Z,11.63
2024-05-09T05:54:03.441Z,11.75
2024-05-09T05:57:03.414Z,11.86
2024-05-09T06:00:05.527Z,11.99
2024-05-09T06:03:03.444Z,12.10
2024-05-09T06:06:03.406Z,12.21
2024-05-09T06:09:03.301Z,12.37
2024-05-09T06:12:03.504Z,12.40
2024-05-09T06:15:03.228Z,12.47
2024-05-09T06:18:03.417Z,12.57
2024-05-09T06:21:03.253Z,12.73
2024-05-09T06:24:06.225Z,12.85
2024-05-09T06:27:03.114Z,12.94
2024-05-09T06:30:03.789Z,12.98
2024-05-09T06:33:03.350Z,13.11
2024-05-09T06:36:03.038Z,13.20
2024-05-09T06:39:02.994Z,13.23
2024-05-09T06:42:02.975Z,13.28
2024-05-09T06:45:02.947Z,13.38
2024-05-09T06:48:03.091Z,13.50
2024-05-09T06:51:02.912Z,13.63
2024-05-09T06:54:02.836Z,13.68
2024-05-09T06:57:02.827Z,13.81
2024-05-09T07:00:02.975Z,13.86
2024-05-09T07:03:05.744Z,14.03
2024-05-09T07:06:02.967Z,14.12
2024-05-09T07:09:02.695Z,14.11
2024-05-09T07:12:02.789Z,14.03
2024-05-09T07:15:10.879Z,14.10
2024-05-09T07:18:02.990Z,14.10
2024-05-09T07:21:02.618Z,14.28
2024-05-09T07:24:02.539Z,14.37
2024-05-09T07:27:02.515Z,14.58
2024-05-09T07:30:05.385Z,14.73
2024-05-09T07:33:03.305Z,14.70
2024-05-09T07:36:03.273Z,14.86
2024-05-09T07:39:02.382Z,14.86
2024-05-09T07:42:02.382Z,14.94
2024-05-09T07:45:21.209Z,15.00
2024-05-09T07:53:07.630Z,15.04
2024-05-09T07:54:02.842Z,15.21
2024-05-09T07:57:02.420Z,15.42
2024-05-09T08:00:02.495Z,15.46
2024-05-09T08:03:02.228Z,15.51
2024-05-09T08:06:02.133Z,15.65
2024-05-09T08:09:07.673Z,15.83
2024-05-09T08:12:02.076Z,15.92
2024-05-09T08:15:02.038Z,16.04
2024-05-09T08:18:02.247Z,16.13
2024-05-09T08:21:01.995Z,16.26
2024-05-09T08:24:01.938Z,16.39
2024-05-09T08:27:01.927Z,16.41
2024-05-09T08:30:01.930Z,16.50
2024-05-09T08:33:01.909Z,16.32
2024-05-09T08:36:01.847Z,16.49
2024-05-09T08:39:01.773Z,16.51
2024-05-09T08:42:01.770Z,16.66
2024-05-09T08:45:01.808Z,16.83
2024-05-09T08:48:01.852Z,16.79
2024-05-09T08:51:01.700Z,16.90
2024-05-09T08:54:01.648Z,17.01
2024-05-09T08:57:01.642Z,17.08
2024-05-09T09:00:01.575Z,17.15
2024-05-09T09:03:01.666Z,17.31
2024-05-09T09:06:01.559Z,17.12
2024-05-09T09:09:01.575Z,17.19
2024-05-09T09:12:01.619Z,17.39
2024-05-09T09:15:01.442Z,17.49
2024-05-09T09:18:01.733Z,17.49
2024-05-09T09:21:01.428Z,17.74
2024-05-09T09:24:01.330Z,17.85
2024-05-09T09:27:01.307Z,17.97
2024-05-09T09:30:01.320Z,18.04
2024-05-09T09:33:01.373Z,18.08
2024-05-09T09:36:01.245Z,18.01
2024-05-09T09:39:01.223Z,18.15
2024-05-09T09:42:01.206Z,18.23
2024-05-09T09:45:05.102Z,18.15
2024-05-09T09:48:01.220Z,18.23
2024-05-09T09:51:01.063Z,18.19
2024-05-09T09:54:01.038Z,18.34
2024-05-09T09:57:01.004Z,18.37
2024-05-09T10:00:00.981Z,18.41
2024-05-09T10:03:01.588Z,18.47
2024-05-09T10:06:00.989Z,18.68
2024-05-09T10:09:00.905Z,18.80
2024-05-09T10:12:01.169Z,18.88
2024-05-09T10:15:01.194Z,18.86
2024-05-09T10:18:00.869Z,18.93
2024-05-09T10:21:00.761Z,18.98
2024-05-09T10:24:00.728Z,19.19
2024-05-09T10:27:00.708Z,19.34
2024-05-09T10:30:00.675Z,19.44
2024-05-09T10:33:03.743Z,19.51
2024-05-09T10:36:00.631Z,19.34
2024-05-09T10:39:00.644Z,19.37
2024-05-09T10:42:00.579Z,19.52
2024-05-09T10:45:00.643Z,19.59
2024-05-09T10:48:00.756Z,19.63
2024-05-09T10:51:00.459Z,19.62
2024-05-09T10:54:00.459Z,19.47
2024-05-09T10:57:00.457Z,19.66
2024-05-09T11:00:00.354Z,19.59
2024-05-09T11:03:00.444Z,19.52
2024-05-09T11:06:00.312Z,19.70
2024-05-09T11:09:00.325Z,19.92
2024-05-09T11:12:00.413Z,20.04
2024-05-09T11:15:00.279Z,20.09
2024-05-09T11:18:00.324Z,19.92
2024-05-09T11:21:00.192Z,19.95
2024-05-09T11:24:00.138Z,20.10
2024-05-09T11:27:00.188Z,20.18
2024-05-09T11:30:00.267Z,20.36
2024-05-09T11:33:00.211Z,20.28
2024-05-09T11:36:00.026Z,20.47
2024-05-09T11:38:59.980Z,20.55
2024-05-09T11:41:59.996Z,20.31
2024-05-09T11:44:59.951Z,20.18
2024-05-09T11:48:00.032Z,20.21
2024-05-09T11:50:59.890Z,20.41
2024-05-09T11:53:59.904Z,20.50
2024-05-09T11:56:59.856Z,20.48
2024-05-09T11:59:59.830Z,20.52
2024-05-09T12:02:59.883Z,20.51
2024-05-09T12:05:59.851Z,20.56
2024-05-09T12:08:59.781Z,20.69
2024-05-09T12:11:59.719Z,20.77
2024-05-09T12:14:59.721Z,20.81
2024-05-09T12:18:02.740Z,20.77
2024-05-09T12:20:59.640Z,20.80
2024-05-09T12:23:59.656Z,20.80
2024-05-09T12:26:59.531Z,20.96
2024-05-09T12:29:59.510Z,21.05
2024-05-09T12:32:59.588Z,21.12
2024-05-09T12:35:59.425Z,21.15
2024-05-09T12:38:59.376Z,21.36
2024-05-09T12:41:59.438Z,21.43
2024-05-09T12:44:59.299Z,21.37
2024-05-09T12:47:59.612Z,21.11
2024-05-09T12:50:59.500Z,21.14
2024-05-09T12:53:59.242Z,21.29
2024-05-09T12:56:59.206Z,21.32
2024-05-09T12:59:59.173Z,21.45
2024-05-09T13:02:59.210Z,21.42
2024-05-09T13:05:59.152Z,21.40
2024-05-09T13:08:59.063Z,21.51
2024-05-09T13:11:59.089Z,21.66
2024-05-09T13:14:59.021Z,21.75
2024-05-09T13:18:02.252Z,21.83
2024-05-09T13:21:07.978Z,21.79
2024-05-09T13:24:00.549Z,21.77
2024-05-09T13:26:58.928Z,21.48
2024-05-09T13:29:58.856Z,21.36
2024-05-09T13:32:58.889Z,21.51
2024-05-09T13:35:58.929Z,21.72
2024-05-09T13:38:58.752Z,21.88
2024-05-09T13:41:58.799Z,21.92
2024-05-09T13:44:58.815Z,21.92
2024-05-09T13:47:58.871Z,22.06
2024-05-09T13:50:58.746Z,21.99
2024-05-09T13:53:58.663Z,22.11
2024-05-09T13:56:58.625Z,22.06
2024-05-09T13:59:58.627Z,22.15
2024-05-09T14:02:58.672Z,22.23
2024-05-09T14:05:58.728Z,21.95
2024-05-09T14:08:58.450Z,22.13
2024-05-09T14:11:58.538Z,22.45
2024-05-09T14:14:58.398Z,22.48
2024-05-09T14:17:58.504Z,22.53
2024-05-09T14:20:58.383Z,22.63
2024-05-09T14:23:58.372Z,22.68
2024-05-09T14:27:15.462Z,22.33
2024-05-09T14:29:58.236Z,22.36
2024-05-09T14:32:58.411Z,22.47
2024-05-09T14:35:58.239Z,22.50
2024-05-09T14:38:58.181Z,22.66
2024-05-09T14:41:58.233Z,22.63
2024-05-09T14:44:58.091Z,22.90
2024-05-09T14:47:58.186Z,23.66
2024-05-09T14:50:58.061Z,26.23
2024-05-09T14:53:58.022Z,28.63
2024-05-09T14:56:58.027Z,27.65
2024-05-09T14:59:57.990Z,26.31
2024-05-09T15:02:58.013Z,28.63
2024-05-09T15:05:57.895Z,31.90
2024-05-09T15:08:57.884Z,32.26
2024-05-09T15:11:58.168Z,29.31
2024-05-09T15:14:57.797Z,27.08
2024-05-09T15:17:57.976Z,25.47
2024-05-09T15:20:57.892Z,24.29
2024-05-09T15:23:57.767Z,23.50
2024-05-09T15:26:57.703Z,23.36
2024-05-09T15:29:57.654Z,23.36
2024-05-09T15:32:57.879Z,23.50
2024-05-09T15:35:57.632Z,23.66
2024-05-09T15:38:57.590Z,23.66
2024-05-09T15:41:57.614Z,23.66
2024-05-09T15:44:57.514Z,23.71
2024-05-09T15:47:57.898Z,23.74
2024-05-09T15:50:57.582Z,23.87
2024-05-09T15:53:57.472Z,24.24
2024-05-09T15:56:57.439Z,23.83
2024-05-09T15:59:57.468Z,23.61
2024-05-09T16:02:57.448Z,23.55
2024-05-09T16:05:57.450Z,23.46
2024-05-09T16:08:57.343Z,23.58
2024-05-09T16:11:57.380Z,23.56
2024-05-09T16:14:57.264Z,23.80
2024-05-09T16:17:57.462Z,24.17
2024-05-09T16:20:57.205Z,24.40
2024-05-09T16:23:57.167Z,24.39
2024-05-09T16:26:57.177Z,23.86
2024-05-09T16:29:57.190Z,23.71
2024-05-09T16:32:57.183Z,23.28
2024-05-09T16:35:57.089Z,22.72
2024-05-09T16:38:57.078Z,22.66
2024-05-09T16:41:57.070Z,22.73
2024-05-09T16:44:56.989Z,22.88
2024-05-09T16:47:57.062Z,22.93
2024-05-09T16:50:56.920Z,22.32
2024-05-09T16:53:56.859Z,21.54
2024-05-09T16:56:56.848Z,21.52
2024-05-09T16:59:56.797Z,21.73
2024-05-09T17:02:56.855Z,21.92
2024-05-09T17:05:56.915Z,21.93
2024-05-09T17:09:01.938Z,21.80
2024-05-09T17:11:56.696Z,21.75
2024-05-09T17:14:56.609Z,21.70
2024-05-09T17:17:56.733Z,21.33
2024-05-09T17:20:56.552Z,21.12
2024-05-09T17:23:56.591Z,20.95
2024-05-09T17:26:56.518Z,20.70
2024-05-09T17:29:56.457Z,20.60
2024-05-09T17:32:56.496Z,20.47
2024-05-09T17:35:56.421Z,20.37
2024-05-09T17:38:56.445Z,20.47
2024-05-09T17:41:56.365Z,20.39
2024-05-09T17:44:56.319Z,20.24
2024-05-09T17:47:56.483Z,20.26
2024-05-09T17:50:56.278Z,20.34
2024-05-09T17:53:56.235Z,20.34
2024-05-09T17:56:56.218Z,20.25
2024-05-09T17:59:56.175Z,20.13
2024-05-09T18:02:56.160Z,20.04
2024-05-09T18:05:56.314Z,19.88
2024-05-09T18:08:56.071Z,19.81
2024-05-09T18:11:56.095Z,19.89
2024-05-09T18:14:56.018Z,19.85
2024-05-09T18:17:56.164Z,19.70
2024-05-09T18:20:56.045Z,19.63
2024-05-09T18:23:58.127Z,19.59
2024-05-09T18:26:55.927Z,19.51
2024-05-09T18:29:55.859Z,19.41
2024-05-09T18:32:55.991Z,19.27
2024-05-09T18:35:55.808Z,19.14
2024-05-09T18:38:55.792Z,19.04
2024-05-09T18:41:55.758Z,18.99
2024-05-09T18:44:55.739Z,18.93
2024-05-09T18:47:55.912Z,18.84
2024-05-09T18:50:55.688Z,18.74
2024-05-09T18:53:55.627Z,18.62
2024-05-09T18:56:55.604Z,18.43
2024-05-09T18:59:55.567Z,18.34
2024-05-09T19:02:55.891Z,18.28
2024-05-09T19:05:55.676Z,18.28
2024-05-09T19:08:55.566Z,18.19
2024-05-09T19:11:55.470Z,18.15
2024-05-09T19:14:55.414Z,18.05
2024-05-09T19:17:55.550Z,17.94
2024-05-09T19:20:55.355Z,17.89
2024-05-09T19:23:55.498Z,17.76
2024-05-09T19:26:55.402Z,17.70
2024-05-09T19:29:57.191Z,17.56
2024-05-09T19:32:55.378Z,17.44
2024-05-09T19:35:55.287Z,17.30
2024-05-09T19:38:55.292Z,17.27
2024-05-09T19:41:55.198Z,17.16
2024-05-09T19:44:55.185Z,17.05
2024-05-09T19:47:55.388Z,16.94
2024-05-09T19:50:55.300Z,16.89
2024-05-09T19:53:55.092Z,16.87
2024-05-09T19:56:55.052Z,16.81
2024-05-09T19:59:55.017Z,16.81
2024-05-09T20:02:55.146Z,16.76
2024-05-09T20:05:55.174Z,16.68
2024-05-09T20:08:55.007Z,16.65
2024-05-09T20:11:55.013Z,16.54
2024-05-09T20:14:54.925Z,16.56
2024-05-09T20:17:55.289Z,16.54
2024-05-09T20:20:54.978Z,16.50
2024-05-09T20:23:54.792Z,16.51
2024-05-09T20:26:54.765Z,16.49
2024-05-09T20:29:54.702Z,16.47
2024-05-09T20:32:54.818Z,16.42
2024-05-09T20:35:54.655Z,16.42
2024-05-09T20:38:54.634Z,16.33
2024-05-09T20:41:54.597Z,16.28
2024-05-09T20:44:54.557Z,16.29
2024-05-09T20:47:54.664Z,16.21
2024-05-09T20:50:54.570Z,16.20
2024-05-09T20:53:54.468Z,16.20
2024-05-09T20:56:54.498Z,16.10
2024-05-09T20:59:54.413Z,16.04
2024-05-09T21:02:54.411Z,15.94
2024-05-09T21:05:54.442Z,15.88
2024-05-09T21:08:54.315Z,15.75
2024-05-09T21:11:54.318Z,15.72
2024-05-09T21:14:54.253Z,15.68
2024-05-09T21:17:54.348Z,15.61
2024-05-09T21:20:54.219Z,15.47
2024-05-09T21:23:54.185Z,15.36
2024-05-09T21:26:54.142Z,15.35
2024-05-09T21:29:54.103Z,15.22
2024-05-09T21:32:54.207Z,15.17
2024-05-09T21:35:54.065Z,15.06
2024-05-09T21:38:54.030Z,15.00
2024-05-09T21:41:53.998Z,14.92
2024-05-09T21:44:53.970Z,14.86
2024-05-09T21:47:54.109Z,14.82
2024-05-09T21:50:53.912Z,14.73
2024-05-09T21:53:53.862Z,14.65
2024-05-09T21:56:53.846Z,14.62
2024-05-09T21:59:53.816Z,14.58
2024-05-09T22:02:53.839Z,14.53
2024-05-09T22:05:53.766Z,14.50
2024-05-09T22:08:53.706Z,14.40
2024-05-09T22:11:54.483Z,14.36
2024-05-09T22:14:53.648Z,14.30
2024-05-09T22:17:53.908Z,14.32
2024-05-09T22:20:53.601Z,14.28
2024-05-09T22:23:53.575Z,14.26
2024-05-09T22:26:53.548Z,14.23
2024-05-09T22:29:53.478Z,14.15
2024-05-09T22:32:53.560Z,14.12
2024-05-09T22:35:53.441Z,14.17
2024-05-09T22:38:53.395Z,14.08
2024-05-09T22:41:53.365Z,14.04
2024-05-09T22:44:53.333Z,14.03
2024-05-09T22:47:53.438Z,13.99
2024-05-09T22:50:53.364Z,13.96
2024-05-09T22:53:53.242Z,13.95
2024-05-09T22:56:53.234Z,13.93
2024-05-09T22:59:53.182Z,13.89
2024-05-09T23:02:53.194Z,13.87
2024-05-09T23:05:53.149Z,13.87
2024-05-09T23:08:53.103Z,13.79
2024-05-09T23:11:53.115Z,13.79
2024-05-09T23:14:53.037Z,13.71
2024-05-09T23:17:53.195Z,13.70
2024-05-09T23:20:52.970Z,13.68
2024-05-09T23:23:52.951Z,13.70
2024-05-09T23:26:52.918Z,13.70
2024-05-09T23:29:52.878Z,13.71
2024-05-09T23:32:53.041Z,13.62
2024-05-09T23:35:52.817Z,13.57
2024-05-09T23:38:52.821Z,13.52
2024-05-09T23:41:52.788Z,13.47
2024-05-09T23:44:52.723Z,13.44
2024-05-09T23:47:52.833Z,13.44
2024-05-09T23:50:52.675Z,13.39
2024-05-09T23:53:52.650Z,13.39
2024-05-09T23:56:52.637Z,13.41
2024-05-09T23:59:52.587Z,13.39
